sensor_id;sensor_type;location;lat;lon;timestamp;temperature;humidity
11559;DHT22;5835;42.930;25.178;2022-08-19T00:00:09;21.60;99.90
11559;DHT22;5835;42.930;25.178;2022-08-19T00:02:37;21.50;99.90
11559;DHT22;5835;42.930;25.178;2022-08-19T00:05:05;21.50;99.90
11559;DHT22;5835;42.930;25.178;2022-08-19T00:07:33;21.50;99.90
11559;DHT22;5835;42.930;25.178;2022-08-19T00:10:03;21.50;99.90
11559;DHT22;5835;42.930;25.178;2022-08-19T00:12:31;21.30;99.90
11559;DHT22;5835;42.930;25.178;2022-08-19T00:14:58;21.30;99.90
11559;DHT22;5835;42.930;25.178;2022-08-19T00:17:26;21.20;99.90
11559;DHT22;5835;42.930;25.178;2022-08-19T00:19:54;21.20;99.90
11559;DHT22;5835;42.930;25.178;2022-08-19T00:22:22;21.20;99.90
11559;DHT22;5835;42.930;25.178;2022-08-19T00:24:50;21.30;99.90
11559;DHT22;5835;42.930;25.178;2022-08-19T00:27:18;21.20;99.90
11559;DHT22;5835;42.930;25.178;2022-08-19T00:29:46;21.30;99.90
11559;DHT22;5835;42.930;25.178;2022-08-19T00:32:17;21.30;99.90
11559;DHT22;5835;42.930;25.178;2022-08-19T00:34:44;21.10;99.90
11559;DHT22;5835;42.930;25.178;2022-08-19T00:37:12;21.00;99.90
11559;DHT22;5835;42.930;25.178;2022-08-19T00:39:39;20.80;99.90
11559;DHT22;5835;42.930;25.178;2022-08-19T00:42:07;20.50;99.90
11559;DHT22;5835;42.930;25.178;2022-08-19T00:44:36;20.50;99.90
11559;DHT22;5835;42.930;25.178;2022-08-19T00:47:04;20.50;99.90
11559;DHT22;5835;42.930;25.178;2022-08-19T00:49:36;20.60;99.90
11559;DHT22;5835;42.930;25.178;2022-08-19T00:52:07;20.60;99.90
11559;DHT22;5835;42.930;25.178;2022-08-19T00:54:36;20.70;99.90
11559;DHT22;5835;42.930;25.178;2022-08-19T00:57:07;20.60;99.90
11559;DHT22;5835;42.930;25.178;2022-08-19T00:59:39;20.50;99.90
11559;DHT22;5835;42.930;25.178;2022-08-19T01:02:09;20.60;99.90
11559;DHT22;5835;42.930;25.178;2022-08-19T01:04:36;20.60;99.90
11559;DHT22;5835;42.930;25.178;2022-08-19T01:07:04;20.50;99.90
11559;DHT22;5835;42.930;25.178;2022-08-19T01:09:32;20.50;99.90
11559;DHT22;5835;42.930;25.178;2022-08-19T01:12:00;20.40;99.90
11559;DHT22;5835;42.930;25.178;2022-08-19T01:14:28;20.40;99.90
11559;DHT22;5835;42.930;25.178;2022-08-19T01:16:58;20.40;99.90
11559;DHT22;5835;42.930;25.178;2022-08-19T01:19:28;20.40;99.90
11559;DHT22;5835;42.930;25.178;2022-08-19T01:22:01;20.40;99.90
11559;DHT22;5835;42.930;25.178;2022-08-19T01:24:31;20.60;99.90
11559;DHT22;5835;42.930;25.178;2022-08-19T01:26:59;20.50;99.90
11559;DHT22;5835;42.930;25.178;2022-08-19T01:29:26;20.40;99.90
11559;DHT22;5835;42.930;25.178;2022-08-19T01:31:54;20.40;99.90
11559;DHT22;5835;42.930;25.178;2022-08-19T01:34:22;20.40;99.90
11559;DHT22;5835;42.930;25.178;2022-08-19T01:36:50;20.30;99.90
11559;DHT22;5835;42.930;25.178;2022-08-19T01:39:24;20.20;99.90
11559;DHT22;5835;42.930;25.178;2022-08-19T01:41:53;20.20;99.90
11559;DHT22;5835;42.930;25.178;2022-08-19T01:44:21;20.10;99.90
11559;DHT22;5835;42.930;25.178;2022-08-19T01:46:51;20.10;99.90
11559;DHT22;5835;42.930;25.178;2022-08-19T01:49:21;20.10;99.90
11559;DHT22;5835;42.930;25.178;2022-08-19T01:51:49;20.10;99.90
11559;DHT22;5835;42.930;25.178;2022-08-19T01:54:19;20.20;99.90
11559;DHT22;5835;42.930;25.178;2022-08-19T01:56:47;20.20;99.90
11559;DHT22;5835;42.930;25.178;2022-08-19T01:59:19;20.30;99.90
11559;DHT22;5835;42.930;25.178;2022-08-19T02:01:47;20.20;99.90
11559;DHT22;5835;42.930;25.178;2022-08-19T02:04:15;20.10;99.90
11559;DHT22;5835;42.930;25.178;2022-08-19T02:06:42;20.10;99.90
11559;DHT22;5835;42.930;25.178;2022-08-19T02:09:10;19.80;99.90
11559;DHT22;5835;42.930;25.178;2022-08-19T02:11:38;19.80;99.90
11559;DHT22;5835;42.930;25.178;2022-08-19T02:14:07;19.70;99.90
11559;DHT22;5835;42.930;25.178;2022-08-19T02:16:36;19.40;99.90
11559;DHT22;5835;42.930;25.178;2022-08-19T02:19:04;19.30;99.90
11559;DHT22;5835;42.930;25.178;2022-08-19T02:21:32;19.30;99.90
11559;DHT22;5835;42.930;25.178;2022-08-19T02:23:59;19.10;99.90
11559;DHT22;5835;42.930;25.178;2022-08-19T02:26:27;19.20;99.90
11559;DHT22;5835;42.930;25.178;2022-08-19T02:28:55;19.40;99.90
11559;DHT22;5835;42.930;25.178;2022-08-19T02:31:24;19.50;99.90
11559;DHT22;5835;42.930;25.178;2022-08-19T02:33:55;19.30;99.90
11559;DHT22;5835;42.930;25.178;2022-08-19T02:36:24;19.30;99.90
11559;DHT22;5835;42.930;25.178;2022-08-19T02:38:52;19.20;99.90
11559;DHT22;5835;42.930;25.178;2022-08-19T02:41:20;18.90;99.90
11559;DHT22;5835;42.930;25.178;2022-08-19T02:43:49;18.60;99.90
11559;DHT22;5835;42.930;25.178;2022-08-19T02:46:18;18.70;99.90
11559;DHT22;5835;42.930;25.178;2022-08-19T02:48:47;18.80;99.90
11559;DHT22;5835;42.930;25.178;2022-08-19T02:51:21;19.00;99.90
11559;DHT22;5835;42.930;25.178;2022-08-19T02:53:49;19.10;99.90
11559;DHT22;5835;42.930;25.178;2022-08-19T02:56:17;19.30;99.90
11559;DHT22;5835;42.930;25.178;2022-08-19T02:58:45;19.30;99.90
11559;DHT22;5835;42.930;25.178;2022-08-19T03:01:20;19.30;99.90
11559;DHT22;5835;42.930;25.178;2022-08-19T03:03:50;19.30;99.90
11559;DHT22;5835;42.930;25.178;2022-08-19T03:06:20;19.30;99.90
11559;DHT22;5835;42.930;25.178;2022-08-19T03:08:48;19.20;99.90
11559;DHT22;5835;42.930;25.178;2022-08-19T03:11:17;18.90;99.90
11559;DHT22;5835;42.930;25.178;2022-08-19T03:13:46;18.90;99.90
11559;DHT22;5835;42.930;25.178;2022-08-19T03:16:15;18.60;99.90
11559;DHT22;5835;42.930;25.178;2022-08-19T03:18:43;18.50;99.90
11559;DHT22;5835;42.930;25.178;2022-08-19T03:21:17;18.40;99.90
11559;DHT22;5835;42.930;25.178;2022-08-19T03:23:46;18.40;99.90
11559;DHT22;5835;42.930;25.178;2022-08-19T03:26:14;18.50;99.90
11559;DHT22;5835;42.930;25.178;2022-08-19T03:28:42;18.80;99.90
11559;DHT22;5835;42.930;25.178;2022-08-19T03:31:13;19.00;99.90
11559;DHT22;5835;42.930;25.178;2022-08-19T03:33:41;18.90;99.90
11559;DHT22;5835;42.930;25.178;2022-08-19T03:36:13;18.70;99.90
11559;DHT22;5835;42.930;25.178;2022-08-19T03:38:43;18.60;99.90
11559;DHT22;5835;42.930;25.178;2022-08-19T03:41:16;18.50;99.90
11559;DHT22;5835;42.930;25.178;2022-08-19T03:43:45;18.60;99.90
11559;DHT22;5835;42.930;25.178;2022-08-19T03:46:16;18.80;99.90
11559;DHT22;5835;42.930;25.178;2022-08-19T03:48:47;18.90;99.90
11559;DHT22;5835;42.930;25.178;2022-08-19T03:51:17;18.90;99.90
11559;DHT22;5835;42.930;25.178;2022-08-19T03:53:46;19.20;99.90
11559;DHT22;5835;42.930;25.178;2022-08-19T03:56:16;19.00;99.90
11559;DHT22;5835;42.930;25.178;2022-08-19T03:58:44;18.70;99.90
11559;DHT22;5835;42.930;25.178;2022-08-19T04:01:15;18.80;99.90
11559;DHT22;5835;42.930;25.178;2022-08-19T04:03:44;19.00;99.90
11559;DHT22;5835;42.930;25.178;2022-08-19T04:06:15;19.00;99.90
11559;DHT22;5835;42.930;25.178;2022-08-19T04:08:45;18.90;99.90
11559;DHT22;5835;42.930;25.178;2022-08-19T04:11:15;18.90;99.90
11559;DHT22;5835;42.930;25.178;2022-08-19T04:13:43;18.90;99.90
11559;DHT22;5835;42.930;25.178;2022-08-19T04:16:11;18.90;99.90
11559;DHT22;5835;42.930;25.178;2022-08-19T04:18:39;18.90;99.90
11559;DHT22;5835;42.930;25.178;2022-08-19T04:21:08;18.90;99.90
11559;DHT22;5835;42.930;25.178;2022-08-19T04:23:42;18.90;99.90
11559;DHT22;5835;42.930;25.178;2022-08-19T04:26:12;19.00;99.90
11559;DHT22;5835;42.930;25.178;2022-08-19T04:28:43;19.10;99.90
11559;DHT22;5835;42.930;25.178;2022-08-19T04:31:15;19.20;99.90
11559;DHT22;5835;42.930;25.178;2022-08-19T04:33:43;19.40;99.90
11559;DHT22;5835;42.930;25.178;2022-08-19T04:36:17;19.50;99.90
11559;DHT22;5835;42.930;25.178;2022-08-19T04:38:46;19.60;99.90
11559;DHT22;5835;42.930;25.178;2022-08-19T04:41:14;19.70;99.90
11559;DHT22;5835;42.930;25.178;2022-08-19T04:44:01;19.70;99.90
11559;DHT22;5835;42.930;25.178;2022-08-19T04:46:29;19.40;99.90
11559;DHT22;5835;42.930;25.178;2022-08-19T04:48:57;19.20;99.90
11559;DHT22;5835;42.930;25.178;2022-08-19T04:51:25;19.20;99.90
11559;DHT22;5835;42.930;25.178;2022-08-19T04:53:54;19.50;99.90
11559;DHT22;5835;42.930;25.178;2022-08-19T04:56:21;19.60;99.90
11559;DHT22;5835;42.930;25.178;2022-08-19T04:58:53;19.80;99.90
11559;DHT22;5835;42.930;25.178;2022-08-19T05:01:24;19.90;99.90
11559;DHT22;5835;42.930;25.178;2022-08-19T05:03:52;20.00;99.90
11559;DHT22;5835;42.930;25.178;2022-08-19T05:06:21;20.10;99.90
11559;DHT22;5835;42.930;25.178;2022-08-19T05:08:49;20.30;99.90
11559;DHT22;5835;42.930;25.178;2022-08-19T05:11:20;20.60;99.90
11559;DHT22;5835;42.930;25.178;2022-08-19T05:13:48;20.80;99.90
11559;DHT22;5835;42.930;25.178;2022-08-19T05:16:18;20.80;99.90
11559;DHT22;5835;42.930;25.178;2022-08-19T05:18:48;20.90;99.90
11559;DHT22;5835;42.930;25.178;2022-08-19T05:21:33;21.10;99.90
11559;DHT22;5835;42.930;25.178;2022-08-19T05:24:19;21.20;99.90
11559;DHT22;5835;42.930;25.178;2022-08-19T05:26:49;21.30;99.90
11559;DHT22;5835;42.930;25.178;2022-08-19T05:29:20;21.50;99.90
11559;DHT22;5835;42.930;25.178;2022-08-19T05:31:49;21.40;99.90
11559;DHT22;5835;42.930;25.178;2022-08-19T05:34:19;21.20;99.90
11559;DHT22;5835;42.930;25.178;2022-08-19T05:36:49;21.10;99.90
11559;DHT22;5835;42.930;25.178;2022-08-19T05:39:19;21.20;99.90
11559;DHT22;5835;42.930;25.178;2022-08-19T05:41:49;21.20;99.90
11559;DHT22;5835;42.930;25.178;2022-08-19T05:44:17;21.30;99.90
11559;DHT22;5835;42.930;25.178;2022-08-19T05:46:46;21.40;99.90
11559;DHT22;5835;42.930;25.178;2022-08-19T05:49:14;21.60;99.90
11559;DHT22;5835;42.930;25.178;2022-08-19T05:51:44;21.70;99.90
11559;DHT22;5835;42.930;25.178;2022-08-19T05:54:11;21.80;99.90
11559;DHT22;5835;42.930;25.178;2022-08-19T05:56:40;22.00;99.90
11559;DHT22;5835;42.930;25.178;2022-08-19T05:59:09;22.10;99.90
11559;DHT22;5835;42.930;25.178;2022-08-19T06:01:39;22.30;99.90
11559;DHT22;5835;42.930;25.178;2022-08-19T06:04:07;22.30;99.90
11559;DHT22;5835;42.930;25.178;2022-08-19T06:06:35;22.50;99.90
11559;DHT22;5835;42.930;25.178;2022-08-19T06:09:06;22.70;99.90
11559;DHT22;5835;42.930;25.178;2022-08-19T06:11:38;22.80;99.90
11559;DHT22;5835;42.930;25.178;2022-08-19T06:14:09;23.00;99.90
11559;DHT22;5835;42.930;25.178;2022-08-19T06:16:38;23.00;99.90
11559;DHT22;5835;42.930;25.178;2022-08-19T06:19:07;23.00;99.90
11559;DHT22;5835;42.930;25.178;2022-08-19T06:21:37;23.20;99.90
11559;DHT22;5835;42.930;25.178;2022-08-19T06:24:11;23.20;99.90
11559;DHT22;5835;42.930;25.178;2022-08-19T06:26:42;23.50;99.90
11559;DHT22;5835;42.930;25.178;2022-08-19T06:29:11;23.50;99.90
11559;DHT22;5835;42.930;25.178;2022-08-19T06:31:42;23.70;99.90
11559;DHT22;5835;42.930;25.178;2022-08-19T06:34:10;23.80;99.90
11559;DHT22;5835;42.930;25.178;2022-08-19T06:36:40;24.00;99.90
11559;DHT22;5835;42.930;25.178;2022-08-19T06:39:13;24.00;99.90
11559;DHT22;5835;42.930;25.178;2022-08-19T06:41:43;24.20;99.90
11559;DHT22;5835;42.930;25.178;2022-08-19T06:44:12;24.20;99.90
11559;DHT22;5835;42.930;25.178;2022-08-19T06:46:41;24.40;99.90
11559;DHT22;5835;42.930;25.178;2022-08-19T06:49:09;24.60;99.90
11559;DHT22;5835;42.930;25.178;2022-08-19T06:51:41;24.80;99.90
11559;DHT22;5835;42.930;25.178;2022-08-19T06:54:11;24.90;99.90
11559;DHT22;5835;42.930;25.178;2022-08-19T06:56:38;25.10;99.90
11559;DHT22;5835;42.930;25.178;2022-08-19T06:59:08;25.30;99.90
11559;DHT22;5835;42.930;25.178;2022-08-19T07:01:38;25.30;99.90
11559;DHT22;5835;42.930;25.178;2022-08-19T07:04:06;25.40;99.90
11559;DHT22;5835;42.930;25.178;2022-08-19T07:06:35;25.80;99.90
11559;DHT22;5835;42.930;25.178;2022-08-19T07:09:04;26.00;99.90
11559;DHT22;5835;42.930;25.178;2022-08-19T07:11:33;26.00;99.90
11559;DHT22;5835;42.930;25.178;2022-08-19T07:14:01;26.20;99.90
11559;DHT22;5835;42.930;25.178;2022-08-19T07:16:29;26.50;99.90
11559;DHT22;5835;42.930;25.178;2022-08-19T07:18:57;26.50;99.90
11559;DHT22;5835;42.930;25.178;2022-08-19T07:21:27;26.70;99.90
11559;DHT22;5835;42.930;25.178;2022-08-19T07:23:55;27.00;99.90
11559;DHT22;5835;42.930;25.178;2022-08-19T07:26:25;27.40;99.90
11559;DHT22;5835;42.930;25.178;2022-08-19T07:28:56;27.50;99.90
11559;DHT22;5835;42.930;25.178;2022-08-19T07:31:26;27.60;99.90
11559;DHT22;5835;42.930;25.178;2022-08-19T07:33:55;28.10;98.60
11559;DHT22;5835;42.930;25.178;2022-08-19T07:36:27;28.10;97.00
11559;DHT22;5835;42.930;25.178;2022-08-19T07:38:59;28.30;95.40
11559;DHT22;5835;42.930;25.178;2022-08-19T07:41:28;28.20;95.30
11559;DHT22;5835;42.930;25.178;2022-08-19T07:43:59;28.40;94.30
11559;DHT22;5835;42.930;25.178;2022-08-19T07:46:29;28.80;93.90
11559;DHT22;5835;42.930;25.178;2022-08-19T07:48:57;28.80;93.70
11559;DHT22;5835;42.930;25.178;2022-08-19T07:51:24;29.00;92.80
11559;DHT22;5835;42.930;25.178;2022-08-19T07:53:52;28.80;92.10
11559;DHT22;5835;42.930;25.178;2022-08-19T07:56:21;28.90;91.50
11559;DHT22;5835;42.930;25.178;2022-08-19T07:58:51;29.00;91.80
11559;DHT22;5835;42.930;25.178;2022-08-19T08:01:23;29.00;91.70
11559;DHT22;5835;42.930;25.178;2022-08-19T08:03:53;29.00;92.90
11559;DHT22;5835;42.930;25.178;2022-08-19T08:06:38;29.60;91.10
11559;DHT22;5835;42.930;25.178;2022-08-19T08:09:25;29.80;91.10
11559;DHT22;5835;42.930;25.178;2022-08-19T08:11:56;29.80;87.90
11559;DHT22;5835;42.930;25.178;2022-08-19T08:14:26;29.80;87.80
11559;DHT22;5835;42.930;25.178;2022-08-19T08:16:56;29.80;86.30
11559;DHT22;5835;42.930;25.178;2022-08-19T08:19:25;29.90;87.60
11559;DHT22;5835;42.930;25.178;2022-08-19T08:21:54;30.10;86.60
11559;DHT22;5835;42.930;25.178;2022-08-19T08:24:23;29.90;85.70
11559;DHT22;5835;42.930;25.178;2022-08-19T08:26:51;30.10;85.50
11559;DHT22;5835;42.930;25.178;2022-08-19T08:29:19;30.40;85.40
11559;DHT22;5835;42.930;25.178;2022-08-19T08:31:47;30.60;84.10
11559;DHT22;5835;42.930;25.178;2022-08-19T08:34:16;30.70;82.20
11559;DHT22;5835;42.930;25.178;2022-08-19T08:36:45;30.60;81.70
11559;DHT22;5835;42.930;25.178;2022-08-19T08:39:16;31.10;81.70
11559;DHT22;5835;42.930;25.178;2022-08-19T08:41:50;31.20;79.40
11559;DHT22;5835;42.930;25.178;2022-08-19T08:44:23;31.40;76.50
11559;DHT22;5835;42.930;25.178;2022-08-19T08:46:53;30.70;74.40
11559;DHT22;5835;42.930;25.178;2022-08-19T08:49:36;30.80;74.80
11559;DHT22;5835;42.930;25.178;2022-08-19T08:52:11;31.30;75.00
11559;DHT22;5835;42.930;25.178;2022-08-19T08:54:44;30.50;75.40
11559;DHT22;5835;42.930;25.178;2022-08-19T08:57:17;30.90;74.70
11559;DHT22;5835;42.930;25.178;2022-08-19T08:59:49;31.10;76.20
11559;DHT22;5835;42.930;25.178;2022-08-19T09:02:18;31.50;73.30
11559;DHT22;5835;42.930;25.178;2022-08-19T09:04:48;31.60;74.00
11559;DHT22;5835;42.930;25.178;2022-08-19T09:07:34;32.00;71.40
11559;DHT22;5835;42.930;25.178;2022-08-19T09:10:14;32.30;72.70
11559;DHT22;5835;42.930;25.178;2022-08-19T09:12:51;32.10;70.60
11559;DHT22;5835;42.930;25.178;2022-08-19T09:15:27;31.80;70.70
11559;DHT22;5835;42.930;25.178;2022-08-19T09:17:59;31.90;70.90
11559;DHT22;5835;42.930;25.178;2022-08-19T09:20:31;31.70;70.60
11559;DHT22;5835;42.930;25.178;2022-08-19T09:22:58;32.10;70.90
11559;DHT22;5835;42.930;25.178;2022-08-19T09:25:26;32.20;69.30
11559;DHT22;5835;42.930;25.178;2022-08-19T09:27:54;32.10;69.30
11559;DHT22;5835;42.930;25.178;2022-08-19T09:30:26;32.00;69.90
11559;DHT22;5835;42.930;25.178;2022-08-19T09:32:54;32.20;69.90
11559;DHT22;5835;42.930;25.178;2022-08-19T09:35:23;32.60;69.10
11559;DHT22;5835;42.930;25.178;2022-08-19T09:37:53;32.50;69.90
11559;DHT22;5835;42.930;25.178;2022-08-19T09:40:20;32.60;69.20
11559;DHT22;5835;42.930;25.178;2022-08-19T09:42:48;32.80;68.40
11559;DHT22;5835;42.930;25.178;2022-08-19T09:45:17;32.80;66.60
11559;DHT22;5835;42.930;25.178;2022-08-19T09:47:47;32.80;68.30
11559;DHT22;5835;42.930;25.178;2022-08-19T09:50:15;33.10;66.50
11559;DHT22;5835;42.930;25.178;2022-08-19T09:52:42;33.20;66.60
11559;DHT22;5835;42.930;25.178;2022-08-19T09:55:12;32.70;66.60
11559;DHT22;5835;42.930;25.178;2022-08-19T09:57:39;32.20;66.50
11559;DHT22;5835;42.930;25.178;2022-08-19T10:00:09;32.40;66.90
11559;DHT22;5835;42.930;25.178;2022-08-19T10:02:36;32.10;67.30
11559;DHT22;5835;42.930;25.178;2022-08-19T10:05:04;32.30;66.50
11559;DHT22;5835;42.930;25.178;2022-08-19T10:07:49;32.70;67.00
11559;DHT22;5835;42.930;25.178;2022-08-19T10:10:19;32.70;66.30
11559;DHT22;5835;42.930;25.178;2022-08-19T10:12:46;33.00;65.30
11559;DHT22;5835;42.930;25.178;2022-08-19T10:15:14;33.30;64.60
11559;DHT22;5835;42.930;25.178;2022-08-19T10:17:42;33.60;65.10
11559;DHT22;5835;42.930;25.178;2022-08-19T10:20:10;33.70;62.80
11559;DHT22;5835;42.930;25.178;2022-08-19T10:22:38;33.90;62.80
11559;DHT22;5835;42.930;25.178;2022-08-19T10:25:07;33.80;62.20
11559;DHT22;5835;42.930;25.178;2022-08-19T10:27:36;33.70;61.30
11559;DHT22;5835;42.930;25.178;2022-08-19T10:30:04;33.40;62.00
11559;DHT22;5835;42.930;25.178;2022-08-19T10:32:32;33.40;59.80
11559;DHT22;5835;42.930;25.178;2022-08-19T10:35:02;33.80;59.70
11559;DHT22;5835;42.930;25.178;2022-08-19T10:37:33;34.50;59.80
11559;DHT22;5835;42.930;25.178;2022-08-19T10:40:02;33.90;60.10
11559;DHT22;5835;42.930;25.178;2022-08-19T10:42:30;33.60;59.20
11559;DHT22;5835;42.930;25.178;2022-08-19T10:44:59;34.10;59.90
11559;DHT22;5835;42.930;25.178;2022-08-19T10:47:27;33.90;59.50
11559;DHT22;5835;42.930;25.178;2022-08-19T10:49:55;33.50;59.80
11559;DHT22;5835;42.930;25.178;2022-08-19T10:52:40;33.50;60.00
11559;DHT22;5835;42.930;25.178;2022-08-19T10:55:08;33.90;58.00
11559;DHT22;5835;42.930;25.178;2022-08-19T10:57:53;33.90;58.10
11559;DHT22;5835;42.930;25.178;2022-08-19T11:00:23;34.30;58.70
11559;DHT22;5835;42.930;25.178;2022-08-19T11:02:51;34.20;57.70
11559;DHT22;5835;42.930;25.178;2022-08-19T11:05:19;34.00;57.60
11559;DHT22;5835;42.930;25.178;2022-08-19T11:07:48;34.20;56.70
11559;DHT22;5835;42.930;25.178;2022-08-19T11:10:17;34.60;57.00
11559;DHT22;5835;42.930;25.178;2022-08-19T11:12:45;34.40;57.30
11559;DHT22;5835;42.930;25.178;2022-08-19T11:15:14;34.70;56.50
11559;DHT22;5835;42.930;25.178;2022-08-19T11:17:43;34.70;56.00
11559;DHT22;5835;42.930;25.178;2022-08-19T11:20:12;34.50;56.80
11559;DHT22;5835;42.930;25.178;2022-08-19T11:22:41;34.20;56.60
11559;DHT22;5835;42.930;25.178;2022-08-19T11:25:10;33.30;57.30
11559;DHT22;5835;42.930;25.178;2022-08-19T11:27:39;33.50;57.70
11559;DHT22;5835;42.930;25.178;2022-08-19T11:30:10;33.90;57.20
11559;DHT22;5835;42.930;25.178;2022-08-19T11:32:38;33.90;56.50
11559;DHT22;5835;42.930;25.178;2022-08-19T11:35:08;34.20;55.40
11559;DHT22;5835;42.930;25.178;2022-08-19T11:37:36;34.50;54.30
11559;DHT22;5835;42.930;25.178;2022-08-19T11:40:05;34.90;54.30
11559;DHT22;5835;42.930;25.178;2022-08-19T11:42:33;34.60;56.40
11559;DHT22;5835;42.930;25.178;2022-08-19T11:45:18;34.60;56.70
11559;DHT22;5835;42.930;25.178;2022-08-19T11:47:46;35.10;55.90
11559;DHT22;5835;42.930;25.178;2022-08-19T11:50:15;35.50;55.70
11559;DHT22;5835;42.930;25.178;2022-08-19T11:52:44;35.70;54.20
11559;DHT22;5835;42.930;25.178;2022-08-19T11:55:12;35.50;53.70
11559;DHT22;5835;42.930;25.178;2022-08-19T11:57:41;35.20;53.00
11559;DHT22;5835;42.930;25.178;2022-08-19T12:00:10;35.20;52.50
11559;DHT22;5835;42.930;25.178;2022-08-19T12:02:39;35.60;52.90
11559;DHT22;5835;42.930;25.178;2022-08-19T12:05:07;35.40;51.50
11559;DHT22;5835;42.930;25.178;2022-08-19T12:07:37;35.10;52.20
11559;DHT22;5835;42.930;25.178;2022-08-19T12:10:06;35.40;52.70
11559;DHT22;5835;42.930;25.178;2022-08-19T12:12:34;35.50;51.90
11559;DHT22;5835;42.930;25.178;2022-08-19T12:15:01;35.10;52.90
11559;DHT22;5835;42.930;25.178;2022-08-19T12:17:29;34.40;53.20
11559;DHT22;5835;42.930;25.178;2022-08-19T12:19:57;34.50;53.50
11559;DHT22;5835;42.930;25.178;2022-08-19T12:22:25;34.20;53.60
11559;DHT22;5835;42.930;25.178;2022-08-19T12:24:55;34.10;53.60
11559;DHT22;5835;42.930;25.178;2022-08-19T12:27:23;34.50;52.50
11559;DHT22;5835;42.930;25.178;2022-08-19T12:29:50;34.50;52.20
11559;DHT22;5835;42.930;25.178;2022-08-19T12:32:18;34.80;51.50
11559;DHT22;5835;42.930;25.178;2022-08-19T12:34:45;35.40;51.10
11559;DHT22;5835;42.930;25.178;2022-08-19T12:37:14;36.00;50.20
11559;DHT22;5835;42.930;25.178;2022-08-19T12:39:43;36.70;49.20
11559;DHT22;5835;42.930;25.178;2022-08-19T12:42:13;37.80;49.70
11559;DHT22;5835;42.930;25.178;2022-08-19T12:44:42;37.90;47.40
11559;DHT22;5835;42.930;25.178;2022-08-19T12:47:12;36.30;48.70
11559;DHT22;5835;42.930;25.178;2022-08-19T12:49:41;35.50;50.90
11559;DHT22;5835;42.930;25.178;2022-08-19T12:52:10;34.30;51.00
11559;DHT22;5835;42.930;25.178;2022-08-19T12:54:41;34.60;51.90
11559;DHT22;5835;42.930;25.178;2022-08-19T12:57:11;34.40;51.10
11559;DHT22;5835;42.930;25.178;2022-08-19T12:59:38;34.80;52.20
11559;DHT22;5835;42.930;25.178;2022-08-19T13:02:07;34.90;52.90
11559;DHT22;5835;42.930;25.178;2022-08-19T13:04:35;35.20;52.00
11559;DHT22;5835;42.930;25.178;2022-08-19T13:07:06;35.10;51.80
11559;DHT22;5835;42.930;25.178;2022-08-19T13:09:35;35.00;51.40
11559;DHT22;5835;42.930;25.178;2022-08-19T13:12:03;35.10;51.30
11559;DHT22;5835;42.930;25.178;2022-08-19T13:14:35;35.60;52.00
11559;DHT22;5835;42.930;25.178;2022-08-19T13:17:03;35.60;50.70
11559;DHT22;5835;42.930;25.178;2022-08-19T13:19:31;35.40;50.30
11559;DHT22;5835;42.930;25.178;2022-08-19T13:21:58;35.90;50.10
11559;DHT22;5835;42.930;25.178;2022-08-19T13:24:26;36.10;49.30
11559;DHT22;5835;42.930;25.178;2022-08-19T13:26:54;36.00;49.40
11559;DHT22;5835;42.930;25.178;2022-08-19T13:29:21;36.30;50.30
11559;DHT22;5835;42.930;25.178;2022-08-19T13:32:08;36.00;50.00
11559;DHT22;5835;42.930;25.178;2022-08-19T13:34:53;36.20;49.20
11559;DHT22;5835;42.930;25.178;2022-08-19T13:37:20;35.40;49.60
11559;DHT22;5835;42.930;25.178;2022-08-19T13:40:08;35.40;50.30
11559;DHT22;5835;42.930;25.178;2022-08-19T13:42:38;35.40;50.80
11559;DHT22;5835;42.930;25.178;2022-08-19T13:45:07;35.60;50.60
11559;DHT22;5835;42.930;25.178;2022-08-19T13:47:36;35.50;50.00
11559;DHT22;5835;42.930;25.178;2022-08-19T13:50:09;36.30;49.50
11559;DHT22;5835;42.930;25.178;2022-08-19T13:52:37;37.30;48.00
11559;DHT22;5835;42.930;25.178;2022-08-19T13:55:06;36.40;48.50
11559;DHT22;5835;42.930;25.178;2022-08-19T13:57:34;36.80;49.00
11559;DHT22;5835;42.930;25.178;2022-08-19T14:00:06;36.80;47.70
11559;DHT22;5835;42.930;25.178;2022-08-19T14:02:37;37.00;47.80
11559;DHT22;5835;42.930;25.178;2022-08-19T14:05:06;36.40;48.10
11559;DHT22;5835;42.930;25.178;2022-08-19T14:07:34;36.20;47.80
11559;DHT22;5835;42.930;25.178;2022-08-19T14:10:02;36.20;48.20
11559;DHT22;5835;42.930;25.178;2022-08-19T14:12:30;36.20;48.50
11559;DHT22;5835;42.930;25.178;2022-08-19T14:14:58;36.10;48.50
11559;DHT22;5835;42.930;25.178;2022-08-19T14:17:26;36.30;49.80
11559;DHT22;5835;42.930;25.178;2022-08-19T14:19:58;36.60;47.60
11559;DHT22;5835;42.930;25.178;2022-08-19T14:22:32;36.70;47.70
11559;DHT22;5835;42.930;25.178;2022-08-19T14:25:02;36.60;47.20
11559;DHT22;5835;42.930;25.178;2022-08-19T14:27:33;36.40;47.00
11559;DHT22;5835;42.930;25.178;2022-08-19T14:30:01;35.90;47.40
11559;DHT22;5835;42.930;25.178;2022-08-19T14:32:29;35.10;47.60
11559;DHT22;5835;42.930;25.178;2022-08-19T14:34:58;36.10;47.80
11559;DHT22;5835;42.930;25.178;2022-08-19T14:37:25;36.50;47.00
11559;DHT22;5835;42.930;25.178;2022-08-19T14:39:53;35.80;47.00
11559;DHT22;5835;42.930;25.178;2022-08-19T14:42:20;36.50;47.70
11559;DHT22;5835;42.930;25.178;2022-08-19T14:44:48;37.00;46.30
11559;DHT22;5835;42.930;25.178;2022-08-19T14:47:15;36.40;46.40
11559;DHT22;5835;42.930;25.178;2022-08-19T14:49:43;36.20;47.10
11559;DHT22;5835;42.930;25.178;2022-08-19T14:52:12;36.00;48.20
11559;DHT22;5835;42.930;25.178;2022-08-19T14:54:39;35.70;48.20
11559;DHT22;5835;42.930;25.178;2022-08-19T14:57:07;35.60;48.10
11559;DHT22;5835;42.930;25.178;2022-08-19T14:59:38;35.80;48.30
11559;DHT22;5835;42.930;25.178;2022-08-19T15:02:06;36.00;47.60
11559;DHT22;5835;42.930;25.178;2022-08-19T15:04:33;35.80;47.30
11559;DHT22;5835;42.930;25.178;2022-08-19T15:07:01;35.90;47.30
11559;DHT22;5835;42.930;25.178;2022-08-19T15:09:32;36.20;47.10
11559;DHT22;5835;42.930;25.178;2022-08-19T15:12:00;35.70;47.30
11559;DHT22;5835;42.930;25.178;2022-08-19T15:14:29;36.00;47.50
11559;DHT22;5835;42.930;25.178;2022-08-19T15:17:01;35.90;47.20
11559;DHT22;5835;42.930;25.178;2022-08-19T15:19:29;36.10;47.10
11559;DHT22;5835;42.930;25.178;2022-08-19T15:21:57;36.00;47.30
11559;DHT22;5835;42.930;25.178;2022-08-19T15:24:25;35.80;47.40
11559;DHT22;5835;42.930;25.178;2022-08-19T15:26:54;36.20;47.20
11559;DHT22;5835;42.930;25.178;2022-08-19T15:29:22;36.30;47.30
11559;DHT22;5835;42.930;25.178;2022-08-19T15:31:50;36.50;46.90
11559;DHT22;5835;42.930;25.178;2022-08-19T15:34:21;35.90;47.60
11559;DHT22;5835;42.930;25.178;2022-08-19T15:36:49;35.90;47.80
11559;DHT22;5835;42.930;25.178;2022-08-19T15:39:20;35.70;47.20
11559;DHT22;5835;42.930;25.178;2022-08-19T15:41:47;35.70;48.20
11559;DHT22;5835;42.930;25.178;2022-08-19T15:44:18;35.90;48.20